sensor_id;sensor_type;location;lat;lon;timestamp;temperature;humidity
19007;DHT22;9636;47.382;8.480;2023-07-20T00:00:18;24.20;91.80
19007;DHT22;9636;47.382;8.480;2023-07-20T00:02:45;24.20;91.80
19007;DHT22;9636;47.382;8.480;2023-07-20T00:05:11;24.10;91.80
19007;DHT22;9636;47.382;8.480;2023-07-20T00:07:40;24.10;91.80
19007;DHT22;9636;47.382;8.480;2023-07-20T00:10:07;24.10;91.90
19007;DHT22;9636;47.382;8.480;2023-07-20T00:12:34;24.10;91.90
19007;DHT22;9636;47.382;8.480;2023-07-20T00:15:01;24.10;92.00
19007;DHT22;9636;47.382;8.480;2023-07-20T00:17:28;24.00;92.00
19007;DHT22;9636;47.382;8.480;2023-07-20T00:19:54;24.00;92.00
19007;DHT22;9636;47.382;8.480;2023-07-20T00:22:21;24.00;92.10
19007;DHT22;9636;47.382;8.480;2023-07-20T00:24:49;23.90;92.20
19007;DHT22;9636;47.382;8.480;2023-07-20T00:27:16;23.90;92.10
19007;DHT22;9636;47.382;8.480;2023-07-20T00:29:43;23.90;92.30
19007;DHT22;9636;47.382;8.480;2023-07-20T00:32:10;23.90;92.30
19007;DHT22;9636;47.382;8.480;2023-07-20T00:34:36;23.90;92.40
19007;DHT22;9636;47.382;8.480;2023-07-20T00:37:03;23.80;92.80
19007;DHT22;9636;47.382;8.480;2023-07-20T00:39:30;23.80;92.40
19007;DHT22;9636;47.382;8.480;2023-07-20T00:41:58;23.80;92.50
19007;DHT22;9636;47.382;8.480;2023-07-20T00:44:25;23.80;92.60
19007;DHT22;9636;47.382;8.480;2023-07-20T00:46:52;23.80;92.60
19007;DHT22;9636;47.382;8.480;2023-07-20T00:49:19;23.70;92.60
19007;DHT22;9636;47.382;8.480;2023-07-20T00:51:48;23.70;92.60
19007;DHT22;9636;47.382;8.480;2023-07-20T00:54:15;23.70;92.70
19007;DHT22;9636;47.382;8.480;2023-07-20T00:56:42;23.70;92.70
19007;DHT22;9636;47.382;8.480;2023-07-20T00:59:11;23.70;92.70
19007;DHT22;9636;47.382;8.480;2023-07-20T01:01:38;23.70;92.70
19007;DHT22;9636;47.382;8.480;2023-07-20T01:04:05;23.70;92.80
19007;DHT22;9636;47.382;8.480;2023-07-20T01:06:38;23.60;92.80
19007;DHT22;9636;47.382;8.480;2023-07-20T01:09:13;23.60;93.00
19007;DHT22;9636;47.382;8.480;2023-07-20T01:11:46;23.60;93.00
19007;DHT22;9636;47.382;8.480;2023-07-20T01:14:15;23.60;92.90
19007;DHT22;9636;47.382;8.480;2023-07-20T01:16:43;23.50;92.90
19007;DHT22;9636;47.382;8.480;2023-07-20T01:19:10;23.50;93.00
19007;DHT22;9636;47.382;8.480;2023-07-20T01:21:41;23.50;93.10
19007;DHT22;9636;47.382;8.480;2023-07-20T01:24:39;23.50;93.10
19007;DHT22;9636;47.382;8.480;2023-07-20T01:27:32;23.40;93.10
19007;DHT22;9636;47.382;8.480;2023-07-20T01:30:27;23.40;93.20
19007;DHT22;9636;47.382;8.480;2023-07-20T01:33:01;23.40;93.20
19007;DHT22;9636;47.382;8.480;2023-07-20T01:35:29;23.40;93.30
19007;DHT22;9636;47.382;8.480;2023-07-20T01:37:57;23.40;93.30
19007;DHT22;9636;47.382;8.480;2023-07-20T01:40:25;23.40;93.40
19007;DHT22;9636;47.382;8.480;2023-07-20T01:42:52;23.30;93.30
19007;DHT22;9636;47.382;8.480;2023-07-20T01:45:19;23.30;93.40
19007;DHT22;9636;47.382;8.480;2023-07-20T01:47:46;23.30;93.40
19007;DHT22;9636;47.382;8.480;2023-07-20T01:50:14;23.30;93.50
19007;DHT22;9636;47.382;8.480;2023-07-20T01:52:41;23.30;93.50
19007;DHT22;9636;47.382;8.480;2023-07-20T01:55:08;23.30;93.60
19007;DHT22;9636;47.382;8.480;2023-07-20T01:57:35;23.20;93.60
19007;DHT22;9636;47.382;8.480;2023-07-20T02:00:02;23.20;93.60
19007;DHT22;9636;47.382;8.480;2023-07-20T02:02:29;23.20;93.80
19007;DHT22;9636;47.382;8.480;2023-07-20T02:04:56;23.10;93.70
19007;DHT22;9636;47.382;8.480;2023-07-20T02:07:24;23.10;93.70
19007;DHT22;9636;47.382;8.480;2023-07-20T02:09:51;23.10;93.70
19007;DHT22;9636;47.382;8.480;2023-07-20T02:12:18;23.10;93.70
19007;DHT22;9636;47.382;8.480;2023-07-20T02:14:45;23.10;93.70
19007;DHT22;9636;47.382;8.480;2023-07-20T02:17:12;23.10;93.80
19007;DHT22;9636;47.382;8.480;2023-07-20T02:19:40;23.10;93.70
19007;DHT22;9636;47.382;8.480;2023-07-20T02:22:07;23.00;93.70
19007;DHT22;9636;47.382;8.480;2023-07-20T02:24:35;23.00;93.70
19007;DHT22;9636;47.382;8.480;2023-07-20T02:27:02;23.00;93.80
19007;DHT22;9636;47.382;8.480;2023-07-20T02:29:29;23.00;93.70
19007;DHT22;9636;47.382;8.480;2023-07-20T02:31:56;23.00;93.70
19007;DHT22;9636;47.382;8.480;2023-07-20T02:34:22;22.90;93.90
19007;DHT22;9636;47.382;8.480;2023-07-20T02:36:49;23.00;93.80
19007;DHT22;9636;47.382;8.480;2023-07-20T02:39:16;22.90;93.80
19007;DHT22;9636;47.382;8.480;2023-07-20T02:41:44;22.90;93.80
19007;DHT22;9636;47.382;8.480;2023-07-20T02:44:11;22.90;93.80
19007;DHT22;9636;47.382;8.480;2023-07-20T02:46:38;22.90;93.80
19007;DHT22;9636;47.382;8.480;2023-07-20T02:49:05;22.90;93.90
19007;DHT22;9636;47.382;8.480;2023-07-20T02:51:31;22.90;93.80
19007;DHT22;9636;47.382;8.480;2023-07-20T02:53:59;22.90;93.80
19007;DHT22;9636;47.382;8.480;2023-07-20T02:56:26;22.80;93.80
19007;DHT22;9636;47.382;8.480;2023-07-20T02:58:54;22.80;93.80
19007;DHT22;9636;47.382;8.480;2023-07-20T03:01:22;22.80;93.90
19007;DHT22;9636;47.382;8.480;2023-07-20T03:03:49;22.80;93.90
19007;DHT22;9636;47.382;8.480;2023-07-20T03:06:16;22.80;93.90
19007;DHT22;9636;47.382;8.480;2023-07-20T03:08:43;22.80;93.90
19007;DHT22;9636;47.382;8.480;2023-07-20T03:11:13;22.80;93.90
19007;DHT22;9636;47.382;8.480;2023-07-20T03:13:40;22.80;94.00
19007;DHT22;9636;47.382;8.480;2023-07-20T03:16:09;22.80;94.00
19007;DHT22;9636;47.382;8.480;2023-07-20T03:18:36;22.70;94.00
19007;DHT22;9636;47.382;8.480;2023-07-20T03:21:04;22.70;94.00
19007;DHT22;9636;47.382;8.480;2023-07-20T03:23:31;22.70;94.00
19007;DHT22;9636;47.382;8.480;2023-07-20T03:25:58;22.70;94.00
19007;DHT22;9636;47.382;8.480;2023-07-20T03:28:25;22.70;94.00
19007;DHT22;9636;47.382;8.480;2023-07-20T03:30:55;22.70;94.10
19007;DHT22;9636;47.382;8.480;2023-07-20T03:33:25;22.70;94.10
19007;DHT22;9636;47.382;8.480;2023-07-20T03:35:53;22.70;94.10
19007;DHT22;9636;47.382;8.480;2023-07-20T03:38:19;22.70;94.10
19007;DHT22;9636;47.382;8.480;2023-07-20T03:40:49;22.70;94.10
19007;DHT22;9636;47.382;8.480;2023-07-20T03:43:16;22.60;94.10
19007;DHT22;9636;47.382;8.480;2023-07-20T03:45:43;22.60;94.20
19007;DHT22;9636;47.382;8.480;2023-07-20T03:48:11;22.60;94.10
19007;DHT22;9636;47.382;8.480;2023-07-20T03:50:39;22.60;94.10
19007;DHT22;9636;47.382;8.480;2023-07-20T03:53:06;22.60;94.10
19007;DHT22;9636;47.382;8.480;2023-07-20T03:55:32;22.60;94.10
19007;DHT22;9636;47.382;8.480;2023-07-20T03:57:59;22.60;94.10
19007;DHT22;9636;47.382;8.480;2023-07-20T04:00:26;22.60;94.20
19007;DHT22;9636;47.382;8.480;2023-07-20T04:02:53;22.60;94.20
19007;DHT22;9636;47.382;8.480;2023-07-20T04:05:20;22.60;94.20
19007;DHT22;9636;47.382;8.480;2023-07-20T04:07:48;22.60;94.20
19007;DHT22;9636;47.382;8.480;2023-07-20T04:10:16;22.50;94.10
19007;DHT22;9636;47.382;8.480;2023-07-20T04:12:44;22.50;94.20
19007;DHT22;9636;47.382;8.480;2023-07-20T04:15:12;22.50;94.20
19007;DHT22;9636;47.382;8.480;2023-07-20T04:17:39;22.50;94.20
19007;DHT22;9636;47.382;8.480;2023-07-20T04:20:08;22.50;94.20
19007;DHT22;9636;47.382;8.480;2023-07-20T04:22:35;22.50;94.20
19007;DHT22;9636;47.382;8.480;2023-07-20T04:25:04;22.50;94.30
19007;DHT22;9636;47.382;8.480;2023-07-20T04:27:31;22.50;94.40
19007;DHT22;9636;47.382;8.480;2023-07-20T04:29:58;22.50;94.50
19007;DHT22;9636;47.382;8.480;2023-07-20T04:32:26;22.50;94.50
19007;DHT22;9636;47.382;8.480;2023-07-20T04:34:53;22.50;94.50
19007;DHT22;9636;47.382;8.480;2023-07-20T04:37:19;22.50;94.40
19007;DHT22;9636;47.382;8.480;2023-07-20T04:39:46;22.50;94.40
19007;DHT22;9636;47.382;8.480;2023-07-20T04:42:14;22.50;94.30
19007;DHT22;9636;47.382;8.480;2023-07-20T04:44:41;22.50;94.30
19007;DHT22;9636;47.382;8.480;2023-07-20T04:47:09;22.50;94.30
19007;DHT22;9636;47.382;8.480;2023-07-20T04:49:36;22.50;94.30
19007;DHT22;9636;47.382;8.480;2023-07-20T04:52:03;22.50;94.50
19007;DHT22;9636;47.382;8.480;2023-07-20T04:54:30;22.40;95.00
19007;DHT22;9636;47.382;8.480;2023-07-20T04:56:56;22.30;95.10
19007;DHT22;9636;47.382;8.480;2023-07-20T04:59:24;22.10;94.70
19007;DHT22;9636;47.382;8.480;2023-07-20T05:01:51;22.00;95.00
19007;DHT22;9636;47.382;8.480;2023-07-20T05:04:18;22.00;95.30
19007;DHT22;9636;47.382;8.480;2023-07-20T05:06:45;22.10;95.60
19007;DHT22;9636;47.382;8.480;2023-07-20T05:09:12;22.00;95.50
19007;DHT22;9636;47.382;8.480;2023-07-20T05:11:38;22.10;95.50
19007;DHT22;9636;47.382;8.480;2023-07-20T05:14:05;22.10;95.60
19007;DHT22;9636;47.382;8.480;2023-07-20T05:16:33;22.10;95.30
19007;DHT22;9636;47.382;8.480;2023-07-20T05:19:00;22.00;94.90
19007;DHT22;9636;47.382;8.480;2023-07-20T05:21:27;22.00;94.90
19007;DHT22;9636;47.382;8.480;2023-07-20T05:23:54;22.00;95.00
19007;DHT22;9636;47.382;8.480;2023-07-20T05:26:20;22.00;96.60
19007;DHT22;9636;47.382;8.480;2023-07-20T05:28:47;22.00;96.20
19007;DHT22;9636;47.382;8.480;2023-07-20T05:31:14;22.10;94.40
19007;DHT22;9636;47.382;8.480;2023-07-20T05:33:42;22.20;94.60
19007;DHT22;9636;47.382;8.480;2023-07-20T05:36:09;22.30;94.00
19007;DHT22;9636;47.382;8.480;2023-07-20T05:38:36;22.30;94.30
19007;DHT22;9636;47.382;8.480;2023-07-20T05:41:02;22.30;94.10
19007;DHT22;9636;47.382;8.480;2023-07-20T05:43:29;22.40;94.30
19007;DHT22;9636;47.382;8.480;2023-07-20T05:45:56;22.40;94.30
19007;DHT22;9636;47.382;8.480;2023-07-20T05:48:23;22.50;94.80
19007;DHT22;9636;47.382;8.480;2023-07-20T05:50:52;22.40;94.50
19007;DHT22;9636;47.382;8.480;2023-07-20T05:53:19;22.40;94.10
19007;DHT22;9636;47.382;8.480;2023-07-20T05:55:52;22.40;93.80
19007;DHT22;9636;47.382;8.480;2023-07-20T05:58:19;22.40;95.30
19007;DHT22;9636;47.382;8.480;2023-07-20T06:00:47;22.50;95.20
19007;DHT22;9636;47.382;8.480;2023-07-20T06:03:14;22.60;94.80
19007;DHT22;9636;47.382;8.480;2023-07-20T06:05:41;22.50;94.20
19007;DHT22;9636;47.382;8.480;2023-07-20T06:08:10;22.60;94.50
19007;DHT22;9636;47.382;8.480;2023-07-20T06:10:36;22.70;95.40
19007;DHT22;9636;47.382;8.480;2023-07-20T06:13:03;22.70;94.80
19007;DHT22;9636;47.382;8.480;2023-07-20T06:15:32;22.80;94.60
19007;DHT22;9636;47.382;8.480;2023-07-20T06:18:01;22.80;94.50
19007;DHT22;9636;47.382;8.480;2023-07-20T06:20:29;22.80;93.50
19007;DHT22;9636;47.382;8.480;2023-07-20T06:22:56;22.80;93.40
19007;DHT22;9636;47.382;8.480;2023-07-20T06:25:24;22.80;93.20
19007;DHT22;9636;47.382;8.480;2023-07-20T06:27:51;22.80;93.30
19007;DHT22;9636;47.382;8.480;2023-07-20T06:30:19;22.80;93.60
19007;DHT22;9636;47.382;8.480;2023-07-20T06:32:45;22.90;93.00
19007;DHT22;9636;47.382;8.480;2023-07-20T06:35:12;23.00;94.10
19007;DHT22;9636;47.382;8.480;2023-07-20T06:37:39;23.00;93.60
19007;DHT22;9636;47.382;8.480;2023-07-20T06:40:07;23.10;94.00
19007;DHT22;9636;47.382;8.480;2023-07-20T06:42:36;23.10;93.40
19007;DHT22;9636;47.382;8.480;2023-07-20T06:45:04;23.10;93.60
19007;DHT22;9636;47.382;8.480;2023-07-20T06:47:31;23.30;94.40
19007;DHT22;9636;47.382;8.480;2023-07-20T06:49:57;23.30;93.80
19007;DHT22;9636;47.382;8.480;2023-07-20T06:52:24;23.40;92.80
19007;DHT22;9636;47.382;8.480;2023-07-20T06:54:51;23.40;94.30
19007;DHT22;9636;47.382;8.480;2023-07-20T06:57:18;23.50;92.90
19007;DHT22;9636;47.382;8.480;2023-07-20T06:59:46;23.60;91.90
19007;DHT22;9636;47.382;8.480;2023-07-20T07:02:14;23.70;91.80
19007;DHT22;9636;47.382;8.480;2023-07-20T07:04:41;23.70;91.70
19007;DHT22;9636;47.382;8.480;2023-07-20T07:07:07;23.80;93.00
19007;DHT22;9636;47.382;8.480;2023-07-20T07:09:34;24.00;92.30
19007;DHT22;9636;47.382;8.480;2023-07-20T07:12:01;24.00;92.20
19007;DHT22;9636;47.382;8.480;2023-07-20T07:14:28;24.10;92.30
19007;DHT22;9636;47.382;8.480;2023-07-20T07:16:56;24.10;91.80
19007;DHT22;9636;47.382;8.480;2023-07-20T07:19:23;24.10;91.80
19007;DHT22;9636;47.382;8.480;2023-07-20T07:21:50;24.10;92.10
19007;DHT22;9636;47.382;8.480;2023-07-20T07:24:17;24.10;91.10
19007;DHT22;9636;47.382;8.480;2023-07-20T07:26:43;24.20;90.80
19007;DHT22;9636;47.382;8.480;2023-07-20T07:29:10;24.20;90.60
19007;DHT22;9636;47.382;8.480;2023-07-20T07:31:37;24.30;90.80
19007;DHT22;9636;47.382;8.480;2023-07-20T07:34:05;24.40;90.60
19007;DHT22;9636;47.382;8.480;2023-07-20T07:36:32;24.40;90.60
19007;DHT22;9636;47.382;8.480;2023-07-20T07:38:59;24.40;91.40
19007;DHT22;9636;47.382;8.480;2023-07-20T07:41:26;24.40;91.40
19007;DHT22;9636;47.382;8.480;2023-07-20T07:43:53;24.50;90.90
19007;DHT22;9636;47.382;8.480;2023-07-20T07:46:20;24.50;90.80
19007;DHT22;9636;47.382;8.480;2023-07-20T07:48:46;24.60;90.50
19007;DHT22;9636;47.382;8.480;2023-07-20T07:51:15;24.70;90.50
19007;DHT22;9636;47.382;8.480;2023-07-20T07:53:41;24.80;91.10
19007;DHT22;9636;47.382;8.480;2023-07-20T07:56:09;24.90;90.90
19007;DHT22;9636;47.382;8.480;2023-07-20T07:58:36;24.90;91.20
19007;DHT22;9636;47.382;8.480;2023-07-20T08:01:02;25.00;91.00
19007;DHT22;9636;47.382;8.480;2023-07-20T08:03:29;25.00;90.40
19007;DHT22;9636;47.382;8.480;2023-07-20T08:05:56;25.10;90.20
19007;DHT22;9636;47.382;8.480;2023-07-20T08:08:25;25.20;90.30
19007;DHT22;9636;47.382;8.480;2023-07-20T08:10:53;25.20;89.40
19007;DHT22;9636;47.382;8.480;2023-07-20T08:13:20;25.20;88.80
19007;DHT22;9636;47.382;8.480;2023-07-20T08:15:50;25.30;90.20
19007;DHT22;9636;47.382;8.480;2023-07-20T08:18:17;25.30;88.90
19007;DHT22;9636;47.382;8.480;2023-07-20T08:20:44;25.50;89.90
19007;DHT22;9636;47.382;8.480;2023-07-20T08:23:10;25.60;89.10
19007;DHT22;9636;47.382;8.480;2023-07-20T08:25:39;25.70;89.90
19007;DHT22;9636;47.382;8.480;2023-07-20T08:28:09;25.70;89.70
19007;DHT22;9636;47.382;8.480;2023-07-20T08:30:46;25.70;88.80
19007;DHT22;9636;47.382;8.480;2023-07-20T08:33:14;25.70;89.80
19007;DHT22;9636;47.382;8.480;2023-07-20T08:35:42;25.90;89.30
19007;DHT22;9636;47.382;8.480;2023-07-20T08:38:09;26.00;88.70
19007;DHT22;9636;47.382;8.480;2023-07-20T08:40:41;26.20;88.50
19007;DHT22;9636;47.382;8.480;2023-07-20T08:43:09;26.40;87.80
19007;DHT22;9636;47.382;8.480;2023-07-20T08:45:39;26.60;87.70
19007;DHT22;9636;47.382;8.480;2023-07-20T08:48:07;26.80;87.20
19007;DHT22;9636;47.382;8.480;2023-07-20T08:50:35;27.00;86.50
19007;DHT22;9636;47.382;8.480;2023-07-20T08:53:02;27.10;85.70
19007;DHT22;9636;47.382;8.480;2023-07-20T08:55:30;27.20;85.60
19007;DHT22;9636;47.382;8.480;2023-07-20T08:57:59;27.40;84.20
19007;DHT22;9636;47.382;8.480;2023-07-20T09:00:27;27.50;84.50
19007;DHT22;9636;47.382;8.480;2023-07-20T09:02:55;27.60;82.90
19007;DHT22;9636;47.382;8.480;2023-07-20T09:05:23;27.60;83.20
19007;DHT22;9636;47.382;8.480;2023-07-20T09:07:51;27.50;83.40
19007;DHT22;9636;47.382;8.480;2023-07-20T09:10:18;27.30;83.20
19007;DHT22;9636;47.382;8.480;2023-07-20T09:12:46;27.20;84.10
19007;DHT22;9636;47.382;8.480;2023-07-20T09:15:14;27.00;84.50
19007;DHT22;9636;47.382;8.480;2023-07-20T09:17:45;27.00;84.50
19007;DHT22;9636;47.382;8.480;2023-07-20T09:20:15;26.90;83.50
19007;DHT22;9636;47.382;8.480;2023-07-20T09:22:43;27.00;83.80
19007;DHT22;9636;47.382;8.480;2023-07-20T09:25:11;27.00;82.20
19007;DHT22;9636;47.382;8.480;2023-07-20T09:27:39;27.10;84.10
19007;DHT22;9636;47.382;8.480;2023-07-20T09:30:07;27.10;84.50
19007;DHT22;9636;47.382;8.480;2023-07-20T09:32:42;27.10;84.50
19007;DHT22;9636;47.382;8.480;2023-07-20T09:35:15;27.20;84.00
19007;DHT22;9636;47.382;8.480;2023-07-20T09:37:46;27.30;83.80
19007;DHT22;9636;47.382;8.480;2023-07-20T09:40:18;27.40;83.50
19007;DHT22;9636;47.382;8.480;2023-07-20T09:42:45;27.50;83.20
19007;DHT22;9636;47.382;8.480;2023-07-20T09:45:12;27.40;83.60
19007;DHT22;9636;47.382;8.480;2023-07-20T09:47:41;27.40;82.70
19007;DHT22;9636;47.382;8.480;2023-07-20T09:50:08;27.30;81.90
19007;DHT22;9636;47.382;8.480;2023-07-20T09:52:38;27.40;82.60
19007;DHT22;9636;47.382;8.480;2023-07-20T09:55:07;27.50;83.00
19007;DHT22;9636;47.382;8.480;2023-07-20T09:57:35;27.50;83.10
19007;DHT22;9636;47.382;8.480;2023-07-20T10:00:03;27.60;83.30
19007;DHT22;9636;47.382;8.480;2023-07-20T10:02:34;27.50;83.40
19007;DHT22;9636;47.382;8.480;2023-07-20T10:05:05;27.40;82.00
19007;DHT22;9636;47.382;8.480;2023-07-20T10:07:36;27.30;81.50
19007;DHT22;9636;47.382;8.480;2023-07-20T10:10:07;27.40;82.30
19007;DHT22;9636;47.382;8.480;2023-07-20T10:12:37;27.50;82.60
19007;DHT22;9636;47.382;8.480;2023-07-20T10:15:10;27.40;82.20
19007;DHT22;9636;47.382;8.480;2023-07-20T10:17:40;27.40;82.00
19007;DHT22;9636;47.382;8.480;2023-07-20T10:20:11;27.30;81.80
19007;DHT22;9636;47.382;8.480;2023-07-20T10:22:39;27.30;81.70
19007;DHT22;9636;47.382;8.480;2023-07-20T10:25:06;27.30;81.20
19007;DHT22;9636;47.382;8.480;2023-07-20T10:27:34;27.40;82.20
19007;DHT22;9636;47.382;8.480;2023-07-20T10:30:01;27.40;82.00
19007;DHT22;9636;47.382;8.480;2023-07-20T10:32:29;27.40;83.70
19007;DHT22;9636;47.382;8.480;2023-07-20T10:34:56;27.50;84.20
19007;DHT22;9636;47.382;8.480;2023-07-20T10:37:50;27.50;85.90
19007;DHT22;9636;47.382;8.480;2023-07-20T10:40:31;27.50;85.80
19007;DHT22;9636;47.382;8.480;2023-07-20T10:43:03;27.50;86.60
19007;DHT22;9636;47.382;8.480;2023-07-20T10:45:34;27.50;83.90
19007;DHT22;9636;47.382;8.480;2023-07-20T10:48:03;27.50;83.90
19007;DHT22;9636;47.382;8.480;2023-07-20T10:50:30;27.60;85.30
19007;DHT22;9636;47.382;8.480;2023-07-20T10:53:10;27.60;85.10
19007;DHT22;9636;47.382;8.480;2023-07-20T10:55:37;27.70;87.10
19007;DHT22;9636;47.382;8.480;2023-07-20T10:58:08;27.80;85.00
19007;DHT22;9636;47.382;8.480;2023-07-20T11:00:36;27.80;85.10
19007;DHT22;9636;47.382;8.480;2023-07-20T11:03:04;27.80;84.90
19007;DHT22;9636;47.382;8.480;2023-07-20T11:05:33;27.70;81.90
19007;DHT22;9636;47.382;8.480;2023-07-20T11:08:00;27.60;85.00
19007;DHT22;9636;47.382;8.480;2023-07-20T11:10:30;28.00;79.90
19007;DHT22;9636;47.382;8.480;2023-07-20T11:13:23;28.20;78.70
19007;DHT22;9636;47.382;8.480;2023-07-20T11:16:03;28.40;81.50
19007;DHT22;9636;47.382;8.480;2023-07-20T11:18:34;28.70;81.30
19007;DHT22;9636;47.382;8.480;2023-07-20T11:21:10;29.40;79.20
19007;DHT22;9636;47.382;8.480;2023-07-20T11:23:38;29.20;79.50
19007;DHT22;9636;47.382;8.480;2023-07-20T11:26:07;28.90;78.20
19007;DHT22;9636;47.382;8.480;2023-07-20T11:28:35;28.70;81.90
19007;DHT22;9636;47.382;8.480;2023-07-20T11:31:02;28.60;81.80
19007;DHT22;9636;47.382;8.480;2023-07-20T11:33:29;28.50;80.50
19007;DHT22;9636;47.382;8.480;2023-07-20T11:35:56;28.50;83.10
19007;DHT22;9636;47.382;8.480;2023-07-20T11:38:23;28.40;83.50
19007;DHT22;9636;47.382;8.480;2023-07-20T11:40:50;28.40;82.10
19007;DHT22;9636;47.382;8.480;2023-07-20T11:43:19;28.50;81.30
19007;DHT22;9636;47.382;8.480;2023-07-20T11:45:48;28.50;79.40
19007;DHT22;9636;47.382;8.480;2023-07-20T11:48:15;28.40;79.90
19007;DHT22;9636;47.382;8.480;2023-07-20T11:50:42;28.50;82.60
19007;DHT22;9636;47.382;8.480;2023-07-20T11:53:09;28.50;80.90
19007;DHT22;9636;47.382;8.480;2023-07-20T11:55:36;28.50;82.30
19007;DHT22;9636;47.382;8.480;2023-07-20T11:58:05;28.60;81.80
19007;DHT22;9636;47.382;8.480;2023-07-20T12:00:34;28.60;83.30
19007;DHT22;9636;47.382;8.480;2023-07-20T12:03:04;28.50;78.30
19007;DHT22;9636;47.382;8.480;2023-07-20T12:05:32;28.50;78.40
19007;DHT22;9636;47.382;8.480;2023-07-20T12:07:59;28.40;81.30
19007;DHT22;9636;47.382;8.480;2023-07-20T12:10:27;28.30;81.30
19007;DHT22;9636;47.382;8.480;2023-07-20T12:12:55;28.30;80.30
19007;DHT22;9636;47.382;8.480;2023-07-20T12:15:27;28.30;82.10
19007;DHT22;9636;47.382;8.480;2023-07-20T12:17:58;28.40;82.90
19007;DHT22;9636;47.382;8.480;2023-07-20T12:20:26;28.40;82.50
19007;DHT22;9636;47.382;8.480;2023-07-20T12:22:56;28.40;78.90
19007;DHT22;9636;47.382;8.480;2023-07-20T12:25:23;28.50;80.20
19007;DHT22;9636;47.382;8.480;2023-07-20T12:28:00;28.60;81.80
19007;DHT22;9636;47.382;8.480;2023-07-20T12:30:28;28.70;82.00
19007;DHT22;9636;47.382;8.480;2023-07-20T12:32:56;28.70;81.80
19007;DHT22;9636;47.382;8.480;2023-07-20T12:35:23;28.80;82.60
19007;DHT22;9636;47.382;8.480;2023-07-20T12:37:50;28.80;83.60
19007;DHT22;9636;47.382;8.480;2023-07-20T12:40:17;28.80;81.80
19007;DHT22;9636;47.382;8.480;2023-07-20T12:42:43;28.80;81.40
19007;DHT22;9636;47.382;8.480;2023-07-20T12:45:10;28.80;78.70
19007;DHT22;9636;47.382;8.480;2023-07-20T12:47:39;28.90;79.10
19007;DHT22;9636;47.382;8.480;2023-07-20T12:50:08;28.90;80.00
19007;DHT22;9636;47.382;8.480;2023-07-20T12:52:36;28.90;76.70
19007;DHT22;9636;47.382;8.480;2023-07-20T12:55:04;29.00;81.10
19007;DHT22;9636;47.382;8.480;2023-07-20T12:57:31;29.00;77.10
19007;DHT22;9636;47.382;8.480;2023-07-20T12:59:58;29.10;80.20
19007;DHT22;9636;47.382;8.480;2023-07-20T13:02:25;29.10;82.70
19007;DHT22;9636;47.382;8.480;2023-07-20T13:04:51;29.20;81.10
19007;DHT22;9636;47.382;8.480;2023-07-20T13:07:29;29.20;80.60
19007;DHT22;9636;47.382;8.480;2023-07-20T13:09:56;29.20;81.60
19007;DHT22;9636;47.382;8.480;2023-07-20T13:12:24;29.30;79.40
19007;DHT22;9636;47.382;8.480;2023-07-20T13:14:51;29.20;79.40
19007;DHT22;9636;47.382;8.480;2023-07-20T13:17:18;29.20;79.60
19007;DHT22;9636;47.382;8.480;2023-07-20T13:19:44;29.20;79.80
19007;DHT22;9636;47.382;8.480;2023-07-20T13:22:12;29.30;79.80
19007;DHT22;9636;47.382;8.480;2023-07-20T13:24:41;29.30;78.60
19007;DHT22;9636;47.382;8.480;2023-07-20T13:27:08;29.30;77.70
19007;DHT22;9636;47.382;8.480;2023-07-20T13:29:35;29.30;80.00
19007;DHT22;9636;47.382;8.480;2023-07-20T13:32:02;29.40;82.20
19007;DHT22;9636;47.382;8.480;2023-07-20T13:34:30;29.40;77.00
19007;DHT22;9636;47.382;8.480;2023-07-20T13:36:57;29.40;77.30
19007;DHT22;9636;47.382;8.480;2023-07-20T13:39:24;29.50;77.30
19007;DHT22;9636;47.382;8.480;2023-07-20T13:41:53;29.40;78.80
19007;DHT22;9636;47.382;8.480;2023-07-20T13:44:21;29.50;77.60
19007;DHT22;9636;47.382;8.480;2023-07-20T13:46:48;29.40;76.40
19007;DHT22;9636;47.382;8.480;2023-07-20T13:49:15;29.50;77.80
19007;DHT22;9636;47.382;8.480;2023-07-20T13:51:42;29.40;74.10
19007;DHT22;9636;47.382;8.480;2023-07-20T13:54:09;29.40;73.20
19007;DHT22;9636;47.382;8.480;2023-07-20T13:56:37;29.40;75.60
19007;DHT22;9636;47.382;8.480;2023-07-20T13:59:05;29.50;76.80
19007;DHT22;9636;47.382;8.480;2023-07-20T14:01:32;29.50;76.60
19007;DHT22;9636;47.382;8.480;2023-07-20T14:04:00;29.50;78.30
19007;DHT22;9636;47.382;8.480;2023-07-20T14:06:30;29.50;77.00
19007;DHT22;9636;47.382;8.480;2023-07-20T14:08:57;29.50;74.40
19007;DHT22;9636;47.382;8.480;2023-07-20T14:11:24;29.40;75.50
19007;DHT22;9636;47.382;8.480;2023-07-20T14:13:51;29.50;76.70
19007;DHT22;9636;47.382;8.480;2023-07-20T14:16:20;29.50;78.60
19007;DHT22;9636;47.382;8.480;2023-07-20T14:18:47;29.60;77.40
19007;DHT22;9636;47.382;8.480;2023-07-20T14:21:14;29.60;78.70
19007;DHT22;9636;47.382;8.480;2023-07-20T14:23:41;29.60;75.70
19007;DHT22;9636;47.382;8.480;2023-07-20T14:26:08;29.50;74.90
19007;DHT22;9636;47.382;8.480;2023-07-20T14:28:35;29.40;73.70
19007;DHT22;9636;47.382;8.480;2023-07-20T14:31:03;29.40;73.40
19007;DHT22;9636;47.382;8.480;2023-07-20T14:33:31;29.50;77.90
19007;DHT22;9636;47.382;8.480;2023-07-20T14:35:58;29.40;78.00
19007;DHT22;9636;47.382;8.480;2023-07-20T14:38:27;29.50;77.90
19007;DHT22;9636;47.382;8.480;2023-07-20T14:40:54;29.60;75.00
19007;DHT22;9636;47.382;8.480;2023-07-20T14:43:20;29.50;74.00
19007;DHT22;9636;47.382;8.480;2023-07-20T14:45:47;29.50;75.00
19007;DHT22;9636;47.382;8.480;2023-07-20T14:48:14;29.50;74.30
19007;DHT22;9636;47.382;8.480;2023-07-20T14:50:42;29.50;73.70
19007;DHT22;9636;47.382;8.480;2023-07-20T14:53:11;29.40;72.20
19007;DHT22;9636;47.382;8.480;2023-07-20T14:55:37;29.50;73.80
19007;DHT22;9636;47.382;8.480;2023-07-20T14:58:04;29.30;73.50
19007;DHT22;9636;47.382;8.480;2023-07-20T15:00:31;29.30;76.20
19007;DHT22;9636;47.382;8.480;2023-07-20T15:02:58;29.40;74.70
19007;DHT22;9636;47.382;8.480;2023-07-20T15:05:25;29.40;73.00
19007;DHT22;9636;47.382;8.480;2023-07-20T15:07:54;29.40;76.30
19007;DHT22;9636;47.382;8.480;2023-07-20T15:10:20;29.20;76.40
19007;DHT22;9636;47.382;8.480;2023-07-20T15:12:47;29.30;78.00
19007;DHT22;9636;47.382;8.480;2023-07-20T15:15:15;29.30;77.10
19007;DHT22;9636;47.382;8.480;2023-07-20T15:17:43;29.30;77.90
19007;DHT22;9636;47.382;8.480;2023-07-20T15:20:12;29.30;77.20
19007;DHT22;9636;47.382;8.480;2023-07-20T15:22:39;29.40;76.10
19007;DHT22;9636;47.382;8.480;2023-07-20T15:25:09;29.20;73.80
19007;DHT22;9636;47.382;8.480;2023-07-20T15:27:37;29.20;74.80
19007;DHT22;9636;47.382;8.480;2023-07-20T15:30:06;29.20;77.80
19007;DHT22;9636;47.382;8.480;2023-07-20T15:32:32;29.10;77.40
19007;DHT22;9636;47.382;8.480;2023-07-20T15:34:59;29.20;76.00
19007;DHT22;9636;47.382;8.480;2023-07-20T15:37:26;29.00;76.40
19007;DHT22;9636;47.382;8.480;2023-07-20T15:39:53;29.00;75.00
19007;DHT22;9636;47.382;8.480;2023-07-20T15:42:21;29.10;76.70
19007;DHT22;9636;47.382;8.480;2023-07-20T15:44:48;29.10;76.90
19007;DHT22;9636;47.382;8.480;2023-07-20T15:47:15;29.10;78.60
19007;DHT22;9636;47.382;8.480;2023-07-20T15:49:43;29.10;76.90